CFG069 LOWI-EDDF
Flight info
| Callsign | CFG069 |
|---|---|
| Flight time | 0h 52m |
| Altitude | 34000 |
| Route | MOGTI1X MOGTI Q163 ETASA T163 SPESA SPESA5B |
| Aircraft | A320/M-SDE3FGHIRWY/LB1 |
Departure
| Time | 2026-04-16 13:26 |
|---|---|
| Airport | Innsbruck Airport (LOWI) |
Arrival
| Time | 2026-04-16 14:18 |
|---|---|
| Airport | Frankfurt Main Airport (EDDF) |
| Time | Latitude | Longitude | Altitude | Speed | Heading |
|---|---|---|---|---|---|
| 2026-04-16 13:11 | 47.25824 | 11.35114 | 1901 ft | 0 kts | 174° |
| 2026-04-16 13:16 | 47.25834 | 11.35113 | 1901 ft | 4 kts | 173° |
| 2026-04-16 13:17 | 47.25861 | 11.35107 | 1890 ft | 4 kts | 170° |
| 2026-04-16 13:17 | 47.25878 | 11.35099 | 1893 ft | 4 kts | 92° |
| 2026-04-16 13:17 | 47.25876 | 11.35069 | 1893 ft | 4 kts | 79° |
| 2026-04-16 13:17 | 47.25870 | 11.35030 | 1894 ft | 4 kts | 78° |
| 2026-04-16 13:18 | 47.25868 | 11.35012 | 1890 ft | 1 kts | 80° |
| 2026-04-16 13:21 | 47.25869 | 11.35019 | 1890 ft | 4 kts | 81° |
| 2026-04-16 13:22 | 47.25880 | 11.35121 | 1899 ft | 12 kts | 81° |
| 2026-04-16 13:22 | 47.25893 | 11.35232 | 1901 ft | 11 kts | 75° |
| 2026-04-16 13:22 | 47.25951 | 11.35286 | 1902 ft | 10 kts | 352° |
| 2026-04-16 13:22 | 47.25967 | 11.35282 | 1903 ft | 0 kts | 349° |
| 2026-04-16 13:23 | 47.25975 | 11.35279 | 1898 ft | 6 kts | 350° |
| 2026-04-16 13:23 | 47.26054 | 11.35260 | 1904 ft | 17 kts | 351° |
| 2026-04-16 13:24 | 47.26127 | 11.35374 | 1898 ft | 19 kts | 80° |
| 2026-04-16 13:24 | 47.26137 | 11.35571 | 1892 ft | 17 kts | 104° |
| 2026-04-16 13:24 | 47.26125 | 11.35689 | 1889 ft | 2 kts | 20° |
| 2026-04-16 13:24 | 47.26151 | 11.35650 | 1899 ft | 8 kts | 290° |
| 2026-04-16 13:25 | 47.26152 | 11.35629 | 1895 ft | 0 kts | 264° |
| 2026-04-16 13:25 | 47.26152 | 11.35626 | 1894 ft | 3 kts | 263° |
| 2026-04-16 13:25 | 47.26110 | 11.35248 | 1905 ft | 78 kts | 262° |
| 2026-04-16 13:26 | 47.25989 | 11.34111 | 1913 ft | 143 kts | 261° |
| 2026-04-16 13:26 | 47.25833 | 11.32574 | 2443 ft | 151 kts | 263° |
| 2026-04-16 13:26 | 47.25694 | 11.31042 | 3203 ft | 152 kts | 264° |
| 2026-04-16 13:26 | 47.25542 | 11.29398 | 3564 ft | 172 kts | 263° |
| 2026-04-16 13:27 | 47.25359 | 11.27500 | 3795 ft | 202 kts | 267° |
| 2026-04-16 13:27 | 47.25601 | 11.25388 | 4210 ft | 222 kts | 292° |
| 2026-04-16 13:27 | 47.26236 | 11.23189 | 4613 ft | 246 kts | 293° |
| 2026-04-16 13:27 | 47.26960 | 11.20784 | 5153 ft | 266 kts | 294° |
| 2026-04-16 13:28 | 47.27724 | 11.18248 | 5968 ft | 274 kts | 294° |
| 2026-04-16 13:28 | 47.28491 | 11.15673 | 7009 ft | 275 kts | 294° |
| 2026-04-16 13:28 | 47.29258 | 11.13084 | 7926 ft | 277 kts | 294° |
| 2026-04-16 13:28 | 47.30016 | 11.10459 | 8822 ft | 280 kts | 290° |
| 2026-04-16 13:29 | 47.30397 | 11.08032 | 9562 ft | 283 kts | 276° |
| 2026-04-16 13:29 | 47.30428 | 11.05271 | 10327 ft | 288 kts | 267° |
| 2026-04-16 13:29 | 47.30320 | 11.02202 | 10600 ft | 312 kts | 267° |
| 2026-04-16 13:29 | 47.30200 | 10.98896 | 10833 ft | 334 kts | 267° |
| 2026-04-16 13:30 | 47.30075 | 10.95423 | 11404 ft | 343 kts | 267° |
| 2026-04-16 13:30 | 47.29946 | 10.91894 | 12110 ft | 347 kts | 267° |
| 2026-04-16 13:30 | 47.30005 | 10.88331 | 12854 ft | 350 kts | 278° |
| 2026-04-16 13:30 | 47.30619 | 10.84846 | 13576 ft | 354 kts | 291° |
| 2026-04-16 13:31 | 47.31783 | 10.81640 | 14284 ft | 357 kts | 305° |
| 2026-04-16 13:31 | 47.33445 | 10.78907 | 14948 ft | 361 kts | 317° |
| 2026-04-16 13:31 | 47.35299 | 10.76473 | 15623 ft | 363 kts | 317° |
| 2026-04-16 13:31 | 47.37195 | 10.73974 | 16286 ft | 366 kts | 318° |
| 2026-04-16 13:32 | 47.39260 | 10.71749 | 16941 ft | 370 kts | 328° |
| 2026-04-16 13:32 | 47.41596 | 10.70111 | 17584 ft | 374 kts | 337° |
| 2026-04-16 13:32 | 47.44028 | 10.68701 | 18236 ft | 377 kts | 337° |
| 2026-04-16 13:32 | 47.46478 | 10.67276 | 18813 ft | 380 kts | 337° |
| 2026-04-16 13:33 | 47.48947 | 10.65838 | 19321 ft | 382 kts | 337° |
| 2026-04-16 13:33 | 47.51431 | 10.64387 | 19850 ft | 385 kts | 336° |
| 2026-04-16 13:33 | 47.53930 | 10.62922 | 20409 ft | 387 kts | 336° |
| 2026-04-16 13:33 | 47.56441 | 10.61447 | 20965 ft | 390 kts | 336° |
| 2026-04-16 13:34 | 47.58968 | 10.59961 | 21506 ft | 392 kts | 336° |
| 2026-04-16 13:34 | 47.61512 | 10.58464 | 22014 ft | 394 kts | 336° |
| 2026-04-16 13:34 | 47.64070 | 10.56962 | 22526 ft | 397 kts | 336° |
| 2026-04-16 13:34 | 47.66646 | 10.55454 | 23019 ft | 399 kts | 336° |
| 2026-04-16 13:35 | 47.69232 | 10.53936 | 23502 ft | 401 kts | 336° |
| 2026-04-16 13:35 | 47.71833 | 10.52401 | 23965 ft | 403 kts | 336° |
| 2026-04-16 13:35 | 47.74445 | 10.50853 | 24359 ft | 405 kts | 336° |
| 2026-04-16 13:35 | 47.75452 | 10.50257 | 24504 ft | 406 kts | 336° |
| 2026-04-16 13:36 | 47.77966 | 10.48778 | 24868 ft | 408 kts | 336° |
| 2026-04-16 13:36 | 47.80606 | 10.47222 | 25240 ft | 409 kts | 336° |
| 2026-04-16 13:36 | 47.83258 | 10.45654 | 25607 ft | 411 kts | 336° |
| 2026-04-16 13:36 | 47.85922 | 10.44074 | 25995 ft | 413 kts | 336° |
| 2026-04-16 13:37 | 47.88594 | 10.42484 | 26349 ft | 414 kts | 336° |
| 2026-04-16 13:37 | 47.91273 | 10.40884 | 26716 ft | 416 kts | 336° |
| 2026-04-16 13:37 | 47.93964 | 10.39279 | 27062 ft | 418 kts | 336° |
| 2026-04-16 13:37 | 47.96666 | 10.37672 | 27399 ft | 419 kts | 336° |
| 2026-04-16 13:38 | 47.99385 | 10.36054 | 27728 ft | 421 kts | 336° |
| 2026-04-16 13:38 | 48.02112 | 10.34430 | 28052 ft | 423 kts | 336° |
| 2026-04-16 13:38 | 48.04849 | 10.32797 | 28368 ft | 424 kts | 336° |
| 2026-04-16 13:38 | 48.07595 | 10.31149 | 28673 ft | 426 kts | 336° |
| 2026-04-16 13:39 | 48.10350 | 10.29494 | 28965 ft | 428 kts | 336° |
| 2026-04-16 13:39 | 48.13117 | 10.27837 | 29255 ft | 429 kts | 336° |
| 2026-04-16 13:39 | 48.15894 | 10.26174 | 29526 ft | 431 kts | 336° |
| 2026-04-16 13:39 | 48.18678 | 10.24493 | 29784 ft | 432 kts | 334° |
| 2026-04-16 13:40 | 48.21329 | 10.22392 | 30025 ft | 431 kts | 325° |
| 2026-04-16 13:40 | 48.23722 | 10.19721 | 30359 ft | 428 kts | 319° |
| 2026-04-16 13:40 | 48.26001 | 10.16944 | 30658 ft | 427 kts | 320° |
| 2026-04-16 13:40 | 48.28306 | 10.14151 | 30977 ft | 426 kts | 320° |
| 2026-04-16 13:41 | 48.30641 | 10.11327 | 31289 ft | 424 kts | 320° |
| 2026-04-16 13:41 | 48.32899 | 10.08590 | 31612 ft | 423 kts | 320° |
| 2026-04-16 13:41 | 48.35182 | 10.05816 | 31938 ft | 421 kts | 319° |
| 2026-04-16 13:41 | 48.37453 | 10.03049 | 32257 ft | 419 kts | 319° |
| 2026-04-16 13:42 | 48.39714 | 10.00294 | 32584 ft | 418 kts | 319° |
| 2026-04-16 13:42 | 48.41968 | 9.97544 | 32916 ft | 416 kts | 319° |
| 2026-04-16 13:42 | 48.44212 | 9.94806 | 33244 ft | 414 kts | 319° |
| 2026-04-16 13:42 | 48.46445 | 9.92074 | 33572 ft | 413 kts | 319° |
| 2026-04-16 13:43 | 48.48670 | 9.89352 | 33897 ft | 411 kts | 319° |
| 2026-04-16 13:43 | 48.50885 | 9.86639 | 34188 ft | 410 kts | 319° |
| 2026-04-16 13:43 | 48.53097 | 9.83927 | 34251 ft | 409 kts | 319° |
| 2026-04-16 13:44 | 48.57502 | 9.78511 | 34246 ft | 408 kts | 319° |
| 2026-04-16 13:44 | 48.61886 | 9.73069 | 34247 ft | 407 kts | 318° |
| 2026-04-16 13:45 | 48.66163 | 9.67462 | 34241 ft | 406 kts | 317° |
| 2026-04-16 13:45 | 48.70392 | 9.61792 | 34237 ft | 406 kts | 317° |
| 2026-04-16 13:46 | 48.74635 | 9.56147 | 34237 ft | 406 kts | 317° |
| 2026-04-16 13:46 | 48.78895 | 9.50519 | 34229 ft | 406 kts | 317° |
| 2026-04-16 13:47 | 48.83152 | 9.44881 | 34233 ft | 406 kts | 317° |
| 2026-04-16 13:47 | 48.87400 | 9.39233 | 34238 ft | 406 kts | 317° |
| 2026-04-16 13:48 | 48.91773 | 9.33809 | 34237 ft | 408 kts | 325° |
| 2026-04-16 13:48 | 48.96831 | 9.29836 | 34201 ft | 410 kts | 330° |
| 2026-04-16 13:48 | 48.99390 | 9.27904 | 33801 ft | 411 kts | 330° |
| 2026-04-16 13:49 | 49.01955 | 9.25955 | 33034 ft | 413 kts | 330° |
| 2026-04-16 13:49 | 49.04532 | 9.23987 | 32270 ft | 416 kts | 330° |
| 2026-04-16 13:49 | 49.07134 | 9.21995 | 31529 ft | 421 kts | 330° |
| 2026-04-16 13:49 | 49.09761 | 9.19980 | 30822 ft | 425 kts | 330° |
| 2026-04-16 13:50 | 49.12415 | 9.17940 | 30115 ft | 430 kts | 330° |
| 2026-04-16 13:50 | 49.15097 | 9.15885 | 29321 ft | 431 kts | 330° |
| 2026-04-16 13:50 | 49.17895 | 9.14235 | 28552 ft | 433 kts | 341° |
| 2026-04-16 13:50 | 49.20863 | 9.13429 | 27802 ft | 435 kts | 352° |
| 2026-04-16 13:51 | 49.23896 | 9.13506 | 27074 ft | 438 kts | 1° |
| 2026-04-16 13:51 | 49.26917 | 9.13955 | 26371 ft | 435 kts | 1° |
| 2026-04-16 13:51 | 49.29918 | 9.14394 | 25679 ft | 432 kts | 1° |
| 2026-04-16 13:51 | 49.32905 | 9.14823 | 25006 ft | 429 kts | 0° |
| 2026-04-16 13:52 | 49.35872 | 9.15241 | 24344 ft | 427 kts | 0° |
| 2026-04-16 13:52 | 49.38823 | 9.15658 | 23677 ft | 425 kts | 0° |
| 2026-04-16 13:52 | 49.41759 | 9.16078 | 22915 ft | 423 kts | 1° |
| 2026-04-16 13:52 | 49.44683 | 9.16499 | 22168 ft | 422 kts | 1° |
| 2026-04-16 13:53 | 49.47600 | 9.16913 | 21444 ft | 420 kts | 1° |
| 2026-04-16 13:53 | 49.50504 | 9.17321 | 20736 ft | 418 kts | 1° |
| 2026-04-16 13:53 | 49.53397 | 9.17730 | 20040 ft | 417 kts | 1° |
| 2026-04-16 13:53 | 49.56280 | 9.18146 | 19364 ft | 415 kts | 2° |
| 2026-04-16 13:54 | 49.59152 | 9.18564 | 18705 ft | 414 kts | 2° |
| 2026-04-16 13:54 | 49.62011 | 9.19019 | 17974 ft | 413 kts | 6° |
| 2026-04-16 13:54 | 49.64796 | 9.20185 | 17231 ft | 418 kts | 19° |
| 2026-04-16 13:54 | 49.67363 | 9.22332 | 16509 ft | 422 kts | 32° |
| 2026-04-16 13:55 | 49.69571 | 9.25342 | 15801 ft | 425 kts | 44° |
| 2026-04-16 13:55 | 49.71729 | 9.28428 | 15106 ft | 421 kts | 33° |
| 2026-04-16 13:55 | 49.74257 | 9.30633 | 14434 ft | 415 kts | 20° |
| 2026-04-16 13:55 | 49.76997 | 9.31899 | 13740 ft | 409 kts | 8° |
| 2026-04-16 13:56 | 49.79742 | 9.32731 | 12998 ft | 406 kts | 8° |
| 2026-04-16 13:56 | 49.82523 | 9.32895 | 12263 ft | 397 kts | 349° |
| 2026-04-16 13:56 | 49.85078 | 9.31456 | 11549 ft | 389 kts | 326° |
| 2026-04-16 13:56 | 49.87034 | 9.28647 | 10856 ft | 383 kts | 304° |
| 2026-04-16 13:57 | 49.88129 | 9.24955 | 10371 ft | 373 kts | 286° |
| 2026-04-16 13:57 | 49.88832 | 9.21176 | 10205 ft | 356 kts | 286° |
| 2026-04-16 13:57 | 49.89296 | 9.18725 | 10103 ft | 345 kts | 286° |
| 2026-04-16 13:58 | 49.90598 | 9.11911 | 9833 ft | 315 kts | 286° |
| 2026-04-16 13:58 | 49.91208 | 9.08711 | 9696 ft | 303 kts | 286° |
| 2026-04-16 13:58 | 49.91759 | 9.05817 | 9579 ft | 292 kts | 285° |
| 2026-04-16 13:58 | 49.92318 | 9.02854 | 9442 ft | 281 kts | 285° |
| 2026-04-16 13:59 | 49.92863 | 8.99979 | 9261 ft | 275 kts | 285° |
| 2026-04-16 13:59 | 49.93402 | 8.97132 | 9216 ft | 275 kts | 285° |
| 2026-04-16 13:59 | 49.93942 | 8.94283 | 9213 ft | 276 kts | 285° |
| 2026-04-16 13:59 | 49.94580 | 8.91484 | 9212 ft | 276 kts | 298° |
| 2026-04-16 14:00 | 49.95501 | 8.89638 | 9216 ft | 278 kts | 316° |
| 2026-04-16 14:00 | 49.97147 | 8.88071 | 9185 ft | 282 kts | 339° |
| 2026-04-16 14:00 | 49.99088 | 8.87663 | 9110 ft | 285 kts | 4° |
| 2026-04-16 14:00 | 50.00986 | 8.88536 | 9002 ft | 288 kts | 28° |
| 2026-04-16 14:01 | 50.02495 | 8.90576 | 8899 ft | 291 kts | 53° |
| 2026-04-16 14:01 | 50.03365 | 8.93405 | 8799 ft | 292 kts | 71° |
| 2026-04-16 14:01 | 50.04034 | 8.96395 | 8695 ft | 292 kts | 70° |
| 2026-04-16 14:01 | 50.04724 | 8.99368 | 8587 ft | 292 kts | 69° |
| 2026-04-16 14:02 | 50.05424 | 9.02336 | 8487 ft | 292 kts | 69° |
| 2026-04-16 14:02 | 50.06126 | 9.05295 | 8381 ft | 291 kts | 69° |
| 2026-04-16 14:02 | 50.06824 | 9.08246 | 8269 ft | 291 kts | 69° |
| 2026-04-16 14:02 | 50.07517 | 9.11199 | 8182 ft | 290 kts | 69° |
| 2026-04-16 14:03 | 50.08208 | 9.14142 | 8081 ft | 290 kts | 69° |
| 2026-04-16 14:03 | 50.08897 | 9.17085 | 7983 ft | 289 kts | 69° |
| 2026-04-16 14:03 | 50.09580 | 9.20024 | 7878 ft | 288 kts | 69° |
| 2026-04-16 14:03 | 50.10260 | 9.22961 | 7780 ft | 288 kts | 70° |
| 2026-04-16 14:04 | 50.10938 | 9.25892 | 7680 ft | 287 kts | 69° |
| 2026-04-16 14:04 | 50.11606 | 9.28780 | 7573 ft | 287 kts | 69° |
| 2026-04-16 14:04 | 50.12291 | 9.31741 | 7473 ft | 286 kts | 69° |
| 2026-04-16 14:04 | 50.12965 | 9.34659 | 7378 ft | 286 kts | 70° |
| 2026-04-16 14:05 | 50.13637 | 9.37573 | 7277 ft | 286 kts | 69° |
| 2026-04-16 14:05 | 50.14325 | 9.40426 | 7178 ft | 284 kts | 63° |
| 2026-04-16 14:05 | 50.15524 | 9.42816 | 7076 ft | 281 kts | 36° |
| 2026-04-16 14:05 | 50.17257 | 9.44111 | 6983 ft | 276 kts | 9° |
| 2026-04-16 14:06 | 50.19149 | 9.44103 | 6890 ft | 272 kts | 344° |
| 2026-04-16 14:06 | 50.20937 | 9.43170 | 6784 ft | 271 kts | 338° |
| 2026-04-16 14:06 | 50.22596 | 9.41839 | 6691 ft | 268 kts | 317° |
| 2026-04-16 14:06 | 50.23691 | 9.39545 | 6589 ft | 264 kts | 291° |
| 2026-04-16 14:07 | 50.23990 | 9.36749 | 6486 ft | 263 kts | 265° |
| 2026-04-16 14:07 | 50.23526 | 9.33989 | 6384 ft | 264 kts | 251° |
| 2026-04-16 14:07 | 50.22903 | 9.31285 | 6290 ft | 264 kts | 250° |
| 2026-04-16 14:07 | 50.22277 | 9.28592 | 6213 ft | 264 kts | 250° |
| 2026-04-16 14:08 | 50.21649 | 9.25896 | 6130 ft | 264 kts | 251° |
| 2026-04-16 14:08 | 50.21023 | 9.23204 | 6056 ft | 264 kts | 251° |
| 2026-04-16 14:08 | 50.20512 | 9.20994 | 5981 ft | 263 kts | 251° |
| 2026-04-16 14:08 | 50.19994 | 9.18761 | 5919 ft | 263 kts | 250° |
| 2026-04-16 14:09 | 50.19370 | 9.16080 | 5837 ft | 263 kts | 251° |
| 2026-04-16 14:09 | 50.18758 | 9.13449 | 5759 ft | 258 kts | 250° |
| 2026-04-16 14:09 | 50.18139 | 9.10794 | 5679 ft | 262 kts | 250° |
| 2026-04-16 14:09 | 50.17506 | 9.08129 | 5608 ft | 263 kts | 250° |
| 2026-04-16 14:10 | 50.16871 | 9.05460 | 5526 ft | 262 kts | 250° |
| 2026-04-16 14:10 | 50.16249 | 9.02803 | 5443 ft | 256 kts | 250° |
| 2026-04-16 14:10 | 50.15660 | 9.00279 | 5366 ft | 240 kts | 251° |
| 2026-04-16 14:10 | 50.15103 | 8.97895 | 5288 ft | 228 kts | 250° |
| 2026-04-16 14:11 | 50.14559 | 8.95569 | 5215 ft | 229 kts | 250° |
| 2026-04-16 14:11 | 50.14011 | 8.93227 | 5129 ft | 230 kts | 250° |
| 2026-04-16 14:11 | 50.13469 | 8.90917 | 5028 ft | 225 kts | 250° |
| 2026-04-16 14:11 | 50.12947 | 8.88695 | 5001 ft | 211 kts | 250° |
| 2026-04-16 14:12 | 50.12465 | 8.86648 | 4999 ft | 188 kts | 250° |
| 2026-04-16 14:12 | 50.12044 | 8.84859 | 4988 ft | 167 kts | 251° |
| 2026-04-16 14:12 | 50.11650 | 8.83183 | 4553 ft | 163 kts | 250° |
| 2026-04-16 14:12 | 50.11266 | 8.81554 | 4203 ft | 156 kts | 250° |
| 2026-04-16 14:13 | 50.10904 | 8.80017 | 3954 ft | 147 kts | 250° |
| 2026-04-16 14:13 | 50.10563 | 8.78571 | 3747 ft | 137 kts | 250° |
| 2026-04-16 14:13 | 50.10237 | 8.77192 | 3571 ft | 138 kts | 250° |
| 2026-04-16 14:13 | 50.09898 | 8.75756 | 3396 ft | 146 kts | 249° |
| 2026-04-16 14:14 | 50.09539 | 8.74235 | 3172 ft | 150 kts | 250° |
| 2026-04-16 14:14 | 50.09185 | 8.72739 | 2963 ft | 144 kts | 250° |
| 2026-04-16 14:14 | 50.08847 | 8.71311 | 2783 ft | 137 kts | 250° |
| 2026-04-16 14:14 | 50.08523 | 8.69945 | 2593 ft | 133 kts | 249° |
| 2026-04-16 14:15 | 50.08201 | 8.68586 | 2427 ft | 137 kts | 250° |
| 2026-04-16 14:15 | 50.07862 | 8.67156 | 2238 ft | 142 kts | 249° |
| 2026-04-16 14:15 | 50.07515 | 8.65697 | 2055 ft | 144 kts | 249° |
| 2026-04-16 14:15 | 50.07167 | 8.64231 | 1862 ft | 145 kts | 249° |
| 2026-04-16 14:16 | 50.06829 | 8.62809 | 1652 ft | 139 kts | 250° |
| 2026-04-16 14:16 | 50.06496 | 8.61408 | 1471 ft | 137 kts | 250° |
| 2026-04-16 14:16 | 50.06165 | 8.60018 | 1296 ft | 137 kts | 249° |
| 2026-04-16 14:16 | 50.05834 | 8.58627 | 1108 ft | 136 kts | 249° |
| 2026-04-16 14:17 | 50.05503 | 8.57239 | 915 ft | 137 kts | 249° |
| 2026-04-16 14:17 | 50.05170 | 8.55841 | 727 ft | 138 kts | 246° |
| 2026-04-16 14:17 | 50.04835 | 8.54438 | 544 ft | 139 kts | 246° |
| 2026-04-16 14:17 | 50.04498 | 8.53028 | 364 ft | 139 kts | 248° |
| 2026-04-16 14:18 | 50.04230 | 8.51916 | 336 ft | 73 kts | 250° |
| 2026-04-16 14:18 | 50.04074 | 8.51260 | 329 ft | 56 kts | 249° |
| 2026-04-16 14:18 | 50.03893 | 8.50904 | 323 ft | 31 kts | 216° |
| 2026-04-16 14:18 | 50.03768 | 8.50873 | 329 ft | 0 kts | 133° |
| 2026-04-16 14:19 | 50.03768 | 8.50874 | 329 ft | 0 kts | 123° |
| 2026-04-16 14:19 | 50.03783 | 8.50933 | 333 ft | 9 kts | 66° |
| 2026-04-16 14:19 | 50.03811 | 8.51045 | 332 ft | 9 kts | 69° |
| 2026-04-16 14:19 | 50.03827 | 8.51111 | 332 ft | 4 kts | 69° |
| 2026-04-16 14:20 | 50.03846 | 8.51191 | 335 ft | 17 kts | 70° |
| 2026-04-16 14:20 | 50.03888 | 8.51370 | 332 ft | 17 kts | 69° |
| 2026-04-16 14:20 | 50.03926 | 8.51522 | 334 ft | 13 kts | 69° |
| 2026-04-16 14:20 | 50.03951 | 8.51628 | 336 ft | 9 kts | 70° |
| 2026-04-16 14:21 | 50.03983 | 8.51763 | 334 ft | 19 kts | 69° |
| 2026-04-16 14:21 | 50.04031 | 8.51969 | 335 ft | 20 kts | 71° |
| 2026-04-16 14:21 | 50.04074 | 8.52148 | 346 ft | 15 kts | 69° |
| 2026-04-16 14:21 | 50.04115 | 8.52312 | 348 ft | 17 kts | 69° |
| 2026-04-16 14:22 | 50.04159 | 8.52504 | 349 ft | 21 kts | 71° |
| 2026-04-16 14:22 | 50.04208 | 8.52707 | 352 ft | 18 kts | 69° |
| 2026-04-16 14:22 | 50.04247 | 8.52866 | 357 ft | 13 kts | 70° |
| 2026-04-16 14:22 | 50.04273 | 8.52975 | 360 ft | 14 kts | 69° |
| 2026-04-16 14:23 | 50.04334 | 8.53230 | 365 ft | 30 kts | 69° |
| 2026-04-16 14:23 | 50.04394 | 8.53514 | 375 ft | 25 kts | 80° |
| 2026-04-16 14:23 | 50.04416 | 8.53776 | 375 ft | 24 kts | 83° |
| 2026-04-16 14:23 | 50.04430 | 8.54033 | 375 ft | 24 kts | 85° |
| 2026-04-16 14:24 | 50.04447 | 8.54284 | 375 ft | 23 kts | 83° |
| 2026-04-16 14:24 | 50.04440 | 8.54547 | 371 ft | 26 kts | 107° |
| 2026-04-16 14:24 | 50.04323 | 8.54768 | 363 ft | 28 kts | 150° |
| 2026-04-16 14:24 | 50.04141 | 8.54870 | 353 ft | 23 kts | 159° |
| 2026-04-16 14:25 | 50.04012 | 8.54923 | 352 ft | 17 kts | 196° |
| 2026-04-16 14:25 | 50.03957 | 8.54765 | 352 ft | 19 kts | 249° |
| 2026-04-16 14:25 | 50.03912 | 8.54650 | 352 ft | 6 kts | 186° |
| 2026-04-16 14:25 | 50.03881 | 8.54672 | 354 ft | 8 kts | 157° |
| 2026-04-16 14:26 | 50.03851 | 8.54690 | 357 ft | 3 kts | 160° |
| 2026-04-16 14:26 | 50.03845 | 8.54693 | 354 ft | 0 kts | 160° |